sensor_id;sensor_type;location;lat;lon;timestamp;temperature;humidity
20045;DHT22;10183;47.808;9.476;2022-07-18T00:01:57;13.80;99.90
20045;DHT22;10183;47.808;9.476;2022-07-18T00:04:24;13.80;99.90
20045;DHT22;10183;47.808;9.476;2022-07-18T00:06:51;13.80;99.90
20045;DHT22;10183;47.808;9.476;2022-07-18T00:09:18;13.80;99.90
20045;DHT22;10183;47.808;9.476;2022-07-18T00:11:45;13.70;99.90
20045;DHT22;10183;47.808;9.476;2022-07-18T00:14:12;13.70;99.90
20045;DHT22;10183;47.808;9.476;2022-07-18T00:16:38;13.70;99.90
20045;DHT22;10183;47.808;9.476;2022-07-18T00:19:05;13.80;99.90
20045;DHT22;10183;47.808;9.476;2022-07-18T00:21:33;13.80;99.90
20045;DHT22;10183;47.808;9.476;2022-07-18T00:23:59;13.80;99.90
20045;DHT22;10183;47.808;9.476;2022-07-18T00:26:26;13.80;99.90
20045;DHT22;10183;47.808;9.476;2022-07-18T00:28:52;13.70;99.90
20045;DHT22;10183;47.808;9.476;2022-07-18T00:31:18;13.50;99.90
20045;DHT22;10183;47.808;9.476;2022-07-18T00:33:44;13.50;99.90
20045;DHT22;10183;47.808;9.476;2022-07-18T00:36:11;13.40;99.90
20045;DHT22;10183;47.808;9.476;2022-07-18T00:38:38;13.30;99.90
20045;DHT22;10183;47.808;9.476;2022-07-18T00:41:04;13.50;99.90
20045;DHT22;10183;47.808;9.476;2022-07-18T00:43:31;13.60;99.90
20045;DHT22;10183;47.808;9.476;2022-07-18T00:45:57;13.60;99.90
20045;DHT22;10183;47.808;9.476;2022-07-18T00:48:23;13.60;99.90
20045;DHT22;10183;47.808;9.476;2022-07-18T00:50:49;13.60;99.90
20045;DHT22;10183;47.808;9.476;2022-07-18T00:53:16;13.60;99.90
20045;DHT22;10183;47.808;9.476;2022-07-18T00:55:44;13.40;99.90
20045;DHT22;10183;47.808;9.476;2022-07-18T00:58:12;13.50;99.90
20045;DHT22;10183;47.808;9.476;2022-07-18T01:00:39;13.40;99.90
20045;DHT22;10183;47.808;9.476;2022-07-18T01:03:24;13.40;99.90
20045;DHT22;10183;47.808;9.476;2022-07-18T01:05:51;13.30;99.90
20045;DHT22;10183;47.808;9.476;2022-07-18T01:08:17;13.30;99.90
20045;DHT22;10183;47.808;9.476;2022-07-18T01:10:43;13.30;99.90
20045;DHT22;10183;47.808;9.476;2022-07-18T01:13:09;13.30;99.90
20045;DHT22;10183;47.808;9.476;2022-07-18T01:15:35;13.30;99.90
20045;DHT22;10183;47.808;9.476;2022-07-18T01:18:03;13.30;99.90
20045;DHT22;10183;47.808;9.476;2022-07-18T01:20:31;13.20;99.90
20045;DHT22;10183;47.808;9.476;2022-07-18T01:22:58;13.20;99.90
20045;DHT22;10183;47.808;9.476;2022-07-18T01:25:24;13.20;99.90
20045;DHT22;10183;47.808;9.476;2022-07-18T01:27:50;13.20;99.90
20045;DHT22;10183;47.808;9.476;2022-07-18T01:30:17;13.20;99.90
20045;DHT22;10183;47.808;9.476;2022-07-18T01:32:43;13.20;99.90
20045;DHT22;10183;47.808;9.476;2022-07-18T01:35:10;13.20;99.90
20045;DHT22;10183;47.808;9.476;2022-07-18T01:37:36;13.20;99.90
20045;DHT22;10183;47.808;9.476;2022-07-18T01:40:08;13.10;99.90
20045;DHT22;10183;47.808;9.476;2022-07-18T01:42:34;13.10;99.90
20045;DHT22;10183;47.808;9.476;2022-07-18T01:45:00;13.10;99.90
20045;DHT22;10183;47.808;9.476;2022-07-18T01:47:26;13.10;99.90
20045;DHT22;10183;47.808;9.476;2022-07-18T01:49:52;13.10;99.90
20045;DHT22;10183;47.808;9.476;2022-07-18T01:52:18;13.00;99.90
20045;DHT22;10183;47.808;9.476;2022-07-18T01:54:44;12.90;99.90
20045;DHT22;10183;47.808;9.476;2022-07-18T01:57:11;12.80;99.90
20045;DHT22;10183;47.808;9.476;2022-07-18T01:59:37;12.60;99.90
20045;DHT22;10183;47.808;9.476;2022-07-18T02:02:05;12.60;99.90
20045;DHT22;10183;47.808;9.476;2022-07-18T02:04:31;12.50;99.90
20045;DHT22;10183;47.808;9.476;2022-07-18T02:07:16;12.40;99.90
20045;DHT22;10183;47.808;9.476;2022-07-18T02:09:42;12.30;99.90
20045;DHT22;10183;47.808;9.476;2022-07-18T02:12:08;12.30;99.90
20045;DHT22;10183;47.808;9.476;2022-07-18T02:14:34;12.40;99.90
20045;DHT22;10183;47.808;9.476;2022-07-18T02:17:00;12.40;99.90
20045;DHT22;10183;47.808;9.476;2022-07-18T02:19:26;12.40;99.90
20045;DHT22;10183;47.808;9.476;2022-07-18T02:21:53;12.40;99.90
20045;DHT22;10183;47.808;9.476;2022-07-18T02:24:19;12.40;99.90
20045;DHT22;10183;47.808;9.476;2022-07-18T02:26:45;12.30;99.90
20045;DHT22;10183;47.808;9.476;2022-07-18T02:29:11;12.30;99.90
20045;DHT22;10183;47.808;9.476;2022-07-18T02:31:37;12.30;99.90
20045;DHT22;10183;47.808;9.476;2022-07-18T02:34:03;12.40;99.90
20045;DHT22;10183;47.808;9.476;2022-07-18T02:36:37;12.40;99.90
20045;DHT22;10183;47.808;9.476;2022-07-18T02:39:05;12.40;99.90
20045;DHT22;10183;47.808;9.476;2022-07-18T02:41:31;12.40;99.90
20045;DHT22;10183;47.808;9.476;2022-07-18T02:43:58;12.20;99.90
20045;DHT22;10183;47.808;9.476;2022-07-18T02:46:24;12.20;99.90
20045;DHT22;10183;47.808;9.476;2022-07-18T02:48:50;12.20;99.90
20045;DHT22;10183;47.808;9.476;2022-07-18T02:51:16;12.20;99.90
20045;DHT22;10183;47.808;9.476;2022-07-18T02:53:43;12.10;99.90
20045;DHT22;10183;47.808;9.476;2022-07-18T02:56:09;12.10;99.90
20045;DHT22;10183;47.808;9.476;2022-07-18T02:58:36;12.10;99.90
20045;DHT22;10183;47.808;9.476;2022-07-18T03:01:02;12.10;99.90
20045;DHT22;10183;47.808;9.476;2022-07-18T03:03:28;12.10;99.90
20045;DHT22;10183;47.808;9.476;2022-07-18T03:05:54;12.10;99.90
20045;DHT22;10183;47.808;9.476;2022-07-18T03:08:20;12.10;99.90
20045;DHT22;10183;47.808;9.476;2022-07-18T03:10:47;12.10;99.90
20045;DHT22;10183;47.808;9.476;2022-07-18T03:13:13;12.00;99.90
20045;DHT22;10183;47.808;9.476;2022-07-18T03:15:40;11.90;99.90
20045;DHT22;10183;47.808;9.476;2022-07-18T03:18:06;11.90;99.90
20045;DHT22;10183;47.808;9.476;2022-07-18T03:20:32;11.90;99.90
20045;DHT22;10183;47.808;9.476;2022-07-18T03:22:58;11.90;99.90
20045;DHT22;10183;47.808;9.476;2022-07-18T03:25:25;11.80;99.90
20045;DHT22;10183;47.808;9.476;2022-07-18T03:27:51;11.80;99.90
20045;DHT22;10183;47.808;9.476;2022-07-18T03:30:17;11.70;99.90
20045;DHT22;10183;47.808;9.476;2022-07-18T03:32:44;11.70;99.90
20045;DHT22;10183;47.808;9.476;2022-07-18T03:35:10;11.70;99.90
20045;DHT22;10183;47.808;9.476;2022-07-18T03:37:37;11.80;99.90
20045;DHT22;10183;47.808;9.476;2022-07-18T03:40:03;11.80;99.90
20045;DHT22;10183;47.808;9.476;2022-07-18T03:42:29;11.70;99.90
20045;DHT22;10183;47.808;9.476;2022-07-18T03:44:55;11.70;99.90
20045;DHT22;10183;47.808;9.476;2022-07-18T03:47:22;11.80;99.90
20045;DHT22;10183;47.808;9.476;2022-07-18T03:49:48;12.00;99.90
20045;DHT22;10183;47.808;9.476;2022-07-18T03:52:14;11.80;99.90
20045;DHT22;10183;47.808;9.476;2022-07-18T03:54:40;11.80;99.90
20045;DHT22;10183;47.808;9.476;2022-07-18T03:57:06;11.70;99.90
20045;DHT22;10183;47.808;9.476;2022-07-18T03:59:32;11.70;99.90
20045;DHT22;10183;47.808;9.476;2022-07-18T04:01:59;11.60;99.90
20045;DHT22;10183;47.808;9.476;2022-07-18T04:04:25;11.70;99.90
20045;DHT22;10183;47.808;9.476;2022-07-18T04:06:51;11.90;99.90
20045;DHT22;10183;47.808;9.476;2022-07-18T04:09:17;11.80;99.90
20045;DHT22;10183;47.808;9.476;2022-07-18T04:11:44;11.80;99.90
20045;DHT22;10183;47.808;9.476;2022-07-18T04:14:10;11.80;99.90
20045;DHT22;10183;47.808;9.476;2022-07-18T04:16:36;11.70;99.90
20045;DHT22;10183;47.808;9.476;2022-07-18T04:19:02;11.80;99.90
20045;DHT22;10183;47.808;9.476;2022-07-18T04:21:28;11.80;99.90
20045;DHT22;10183;47.808;9.476;2022-07-18T04:23:55;11.80;99.90
20045;DHT22;10183;47.808;9.476;2022-07-18T04:26:21;11.70;99.90
20045;DHT22;10183;47.808;9.476;2022-07-18T04:28:47;11.70;99.90
20045;DHT22;10183;47.808;9.476;2022-07-18T04:31:14;11.90;99.90
20045;DHT22;10183;47.808;9.476;2022-07-18T04:33:41;12.10;99.90
20045;DHT22;10183;47.808;9.476;2022-07-18T04:36:07;12.30;99.90
20045;DHT22;10183;47.808;9.476;2022-07-18T04:38:33;12.40;99.90
20045;DHT22;10183;47.808;9.476;2022-07-18T04:41:06;12.60;99.90
20045;DHT22;10183;47.808;9.476;2022-07-18T04:43:32;12.70;99.90
20045;DHT22;10183;47.808;9.476;2022-07-18T04:45:58;12.70;99.90
20045;DHT22;10183;47.808;9.476;2022-07-18T04:48:24;12.60;99.90
20045;DHT22;10183;47.808;9.476;2022-07-18T04:50:51;12.60;99.90
20045;DHT22;10183;47.808;9.476;2022-07-18T04:53:17;12.60;99.90
20045;DHT22;10183;47.808;9.476;2022-07-18T04:55:43;12.60;99.90
20045;DHT22;10183;47.808;9.476;2022-07-18T04:58:09;12.60;99.90
20045;DHT22;10183;47.808;9.476;2022-07-18T05:00:36;12.60;99.90
20045;DHT22;10183;47.808;9.476;2022-07-18T05:03:02;12.70;99.90
20045;DHT22;10183;47.808;9.476;2022-07-18T05:05:29;12.80;99.90
20045;DHT22;10183;47.808;9.476;2022-07-18T05:07:55;12.90;99.90
20045;DHT22;10183;47.808;9.476;2022-07-18T05:10:23;13.10;99.90
20045;DHT22;10183;47.808;9.476;2022-07-18T05:12:52;13.30;99.90
20045;DHT22;10183;47.808;9.476;2022-07-18T05:15:20;13.30;99.90
20045;DHT22;10183;47.808;9.476;2022-07-18T05:17:47;13.40;99.90
20045;DHT22;10183;47.808;9.476;2022-07-18T05:20:15;13.40;99.90
20045;DHT22;10183;47.808;9.476;2022-07-18T05:22:42;13.50;99.90
20045;DHT22;10183;47.808;9.476;2022-07-18T05:25:10;13.60;99.90
20045;DHT22;10183;47.808;9.476;2022-07-18T05:27:36;13.70;99.90
20045;DHT22;10183;47.808;9.476;2022-07-18T05:30:04;13.80;99.90
20045;DHT22;10183;47.808;9.476;2022-07-18T05:32:30;14.00;99.90
20045;DHT22;10183;47.808;9.476;2022-07-18T05:34:57;14.10;99.90
20045;DHT22;10183;47.808;9.476;2022-07-18T05:37:23;14.20;99.90
20045;DHT22;10183;47.808;9.476;2022-07-18T05:39:49;14.40;99.90
20045;DHT22;10183;47.808;9.476;2022-07-18T05:42:19;14.60;99.90
20045;DHT22;10183;47.808;9.476;2022-07-18T05:44:45;14.80;99.90
20045;DHT22;10183;47.808;9.476;2022-07-18T05:47:11;14.90;99.90
20045;DHT22;10183;47.808;9.476;2022-07-18T05:49:39;15.10;99.90
20045;DHT22;10183;47.808;9.476;2022-07-18T05:52:06;15.30;99.90
20045;DHT22;10183;47.808;9.476;2022-07-18T05:54:32;15.30;99.90
20045;DHT22;10183;47.808;9.476;2022-07-18T05:56:58;15.40;99.90
20045;DHT22;10183;47.808;9.476;2022-07-18T05:59:25;15.60;99.90
20045;DHT22;10183;47.808;9.476;2022-07-18T06:01:51;15.70;99.90
20045;DHT22;10183;47.808;9.476;2022-07-18T06:04:17;16.00;99.90
20045;DHT22;10183;47.808;9.476;2022-07-18T06:06:43;16.10;99.90
20045;DHT22;10183;47.808;9.476;2022-07-18T06:09:10;16.30;99.90
20045;DHT22;10183;47.808;9.476;2022-07-18T06:11:38;16.40;99.90
20045;DHT22;10183;47.808;9.476;2022-07-18T06:14:04;16.50;99.90
20045;DHT22;10183;47.808;9.476;2022-07-18T06:16:31;16.50;99.90
20045;DHT22;10183;47.808;9.476;2022-07-18T06:18:58;16.60;99.90
20045;DHT22;10183;47.808;9.476;2022-07-18T06:21:25;16.90;99.90
20045;DHT22;10183;47.808;9.476;2022-07-18T06:23:51;17.10;99.90
20045;DHT22;10183;47.808;9.476;2022-07-18T06:26:17;17.20;99.90
20045;DHT22;10183;47.808;9.476;2022-07-18T06:28:43;17.40;99.90
20045;DHT22;10183;47.808;9.476;2022-07-18T06:31:09;17.50;99.90
20045;DHT22;10183;47.808;9.476;2022-07-18T06:33:37;17.70;99.90
20045;DHT22;10183;47.808;9.476;2022-07-18T06:36:04;17.80;99.90
20045;DHT22;10183;47.808;9.476;2022-07-18T06:38:31;17.90;99.90
20045;DHT22;10183;47.808;9.476;2022-07-18T06:40:57;18.00;99.90
20045;DHT22;10183;47.808;9.476;2022-07-18T06:43:24;18.20;99.90
20045;DHT22;10183;47.808;9.476;2022-07-18T06:45:50;18.20;99.90
20045;DHT22;10183;47.808;9.476;2022-07-18T06:48:18;18.40;99.90
20045;DHT22;10183;47.808;9.476;2022-07-18T06:50:44;18.60;99.90
20045;DHT22;10183;47.808;9.476;2022-07-18T06:53:10;18.70;99.90
20045;DHT22;10183;47.808;9.476;2022-07-18T06:55:36;18.80;99.90
20045;DHT22;10183;47.808;9.476;2022-07-18T06:58:03;19.00;99.90
20045;DHT22;10183;47.808;9.476;2022-07-18T07:00:29;19.10;99.90
20045;DHT22;10183;47.808;9.476;2022-07-18T07:02:55;19.30;99.90
20045;DHT22;10183;47.808;9.476;2022-07-18T07:05:21;19.40;99.90
20045;DHT22;10183;47.808;9.476;2022-07-18T07:07:48;19.50;99.90
20045;DHT22;10183;47.808;9.476;2022-07-18T07:10:16;19.60;99.90
20045;DHT22;10183;47.808;9.476;2022-07-18T07:12:46;19.80;99.90
20045;DHT22;10183;47.808;9.476;2022-07-18T07:15:13;19.80;99.90
20045;DHT22;10183;47.808;9.476;2022-07-18T07:17:39;20.00;99.90
20045;DHT22;10183;47.808;9.476;2022-07-18T07:20:06;20.10;99.90
20045;DHT22;10183;47.808;9.476;2022-07-18T07:22:56;20.10;99.90
20045;DHT22;10183;47.808;9.476;2022-07-18T07:25:25;20.00;99.90
20045;DHT22;10183;47.808;9.476;2022-07-18T07:27:53;20.10;99.90
20045;DHT22;10183;47.808;9.476;2022-07-18T07:30:19;20.10;99.90
20045;DHT22;10183;47.808;9.476;2022-07-18T07:32:46;20.20;99.90
20045;DHT22;10183;47.808;9.476;2022-07-18T07:35:15;20.40;99.90
20045;DHT22;10183;47.808;9.476;2022-07-18T07:37:48;20.60;99.90
20045;DHT22;10183;47.808;9.476;2022-07-18T07:40:15;21.00;99.90
20045;DHT22;10183;47.808;9.476;2022-07-18T07:42:42;21.20;99.90
20045;DHT22;10183;47.808;9.476;2022-07-18T07:45:09;21.50;99.90
20045;DHT22;10183;47.808;9.476;2022-07-18T07:47:36;21.80;99.90
20045;DHT22;10183;47.808;9.476;2022-07-18T07:50:04;22.00;99.90
20045;DHT22;10183;47.808;9.476;2022-07-18T07:52:31;22.20;99.90
20045;DHT22;10183;47.808;9.476;2022-07-18T07:54:57;22.30;99.90
20045;DHT22;10183;47.808;9.476;2022-07-18T07:57:23;22.30;99.90
20045;DHT22;10183;47.808;9.476;2022-07-18T07:59:49;22.30;99.90
20045;DHT22;10183;47.808;9.476;2022-07-18T08:02:16;22.60;99.90
20045;DHT22;10183;47.808;9.476;2022-07-18T08:04:44;22.70;99.90
20045;DHT22;10183;47.808;9.476;2022-07-18T08:07:10;22.70;99.90
20045;DHT22;10183;47.808;9.476;2022-07-18T08:09:37;22.70;99.90
20045;DHT22;10183;47.808;9.476;2022-07-18T08:12:04;23.00;99.90
20045;DHT22;10183;47.808;9.476;2022-07-18T08:14:30;23.00;99.90
20045;DHT22;10183;47.808;9.476;2022-07-18T08:16:59;23.10;99.90
20045;DHT22;10183;47.808;9.476;2022-07-18T08:19:25;23.00;99.90
20045;DHT22;10183;47.808;9.476;2022-07-18T08:21:51;22.70;99.90
20045;DHT22;10183;47.808;9.476;2022-07-18T08:24:18;22.90;99.90
20045;DHT22;10183;47.808;9.476;2022-07-18T08:26:44;23.20;99.90
20045;DHT22;10183;47.808;9.476;2022-07-18T08:29:10;23.40;99.90
20045;DHT22;10183;47.808;9.476;2022-07-18T08:31:36;23.60;99.90
20045;DHT22;10183;47.808;9.476;2022-07-18T08:34:02;23.80;99.90
20045;DHT22;10183;47.808;9.476;2022-07-18T08:36:28;24.00;99.90
20045;DHT22;10183;47.808;9.476;2022-07-18T08:38:54;24.20;99.90
20045;DHT22;10183;47.808;9.476;2022-07-18T08:41:24;24.00;99.90
20045;DHT22;10183;47.808;9.476;2022-07-18T08:43:50;23.80;99.90
20045;DHT22;10183;47.808;9.476;2022-07-18T08:46:20;23.90;99.90
20045;DHT22;10183;47.808;9.476;2022-07-18T08:48:50;24.20;99.90
20045;DHT22;10183;47.808;9.476;2022-07-18T08:51:18;24.30;99.90
20045;DHT22;10183;47.808;9.476;2022-07-18T08:53:46;24.60;99.90
20045;DHT22;10183;47.808;9.476;2022-07-18T08:56:13;24.60;99.90
20045;DHT22;10183;47.808;9.476;2022-07-18T08:58:40;24.50;99.90
20045;DHT22;10183;47.808;9.476;2022-07-18T09:01:07;24.50;99.90
20045;DHT22;10183;47.808;9.476;2022-07-18T09:03:33;24.70;99.90
20045;DHT22;10183;47.808;9.476;2022-07-18T09:06:17;25.10;99.90
20045;DHT22;10183;47.808;9.476;2022-07-18T09:09:00;25.30;99.90
20045;DHT22;10183;47.808;9.476;2022-07-18T09:11:27;25.60;99.90
20045;DHT22;10183;47.808;9.476;2022-07-18T09:13:54;25.90;99.90
20045;DHT22;10183;47.808;9.476;2022-07-18T09:16:20;25.70;99.90
20045;DHT22;10183;47.808;9.476;2022-07-18T09:18:48;25.90;99.90
20045;DHT22;10183;47.808;9.476;2022-07-18T09:21:17;26.10;99.90
20045;DHT22;10183;47.808;9.476;2022-07-18T09:23:47;26.10;99.90
20045;DHT22;10183;47.808;9.476;2022-07-18T09:26:39;26.30;99.90
20045;DHT22;10183;47.808;9.476;2022-07-18T09:29:05;26.30;99.90
20045;DHT22;10183;47.808;9.476;2022-07-18T09:31:32;26.30;99.90
20045;DHT22;10183;47.808;9.476;2022-07-18T09:34:00;26.20;99.90
20045;DHT22;10183;47.808;9.476;2022-07-18T09:36:27;26.40;99.90
20045;DHT22;10183;47.808;9.476;2022-07-18T09:38:55;25.90;96.50
20045;DHT22;10183;47.808;9.476;2022-07-18T09:41:29;26.10;98.80
20045;DHT22;10183;47.808;9.476;2022-07-18T09:43:58;26.40;97.30
20045;DHT22;10183;47.808;9.476;2022-07-18T09:46:25;26.40;94.60
20045;DHT22;10183;47.808;9.476;2022-07-18T09:49:10;26.60;95.10
20045;DHT22;10183;47.808;9.476;2022-07-18T09:51:37;26.90;99.10
20045;DHT22;10183;47.808;9.476;2022-07-18T09:54:03;27.00;88.40
20045;DHT22;10183;47.808;9.476;2022-07-18T09:56:30;27.00;92.00
20045;DHT22;10183;47.808;9.476;2022-07-18T09:58:59;27.10;91.20
20045;DHT22;10183;47.808;9.476;2022-07-18T10:01:27;27.20;92.20
20045;DHT22;10183;47.808;9.476;2022-07-18T10:03:54;27.30;92.10
20045;DHT22;10183;47.808;9.476;2022-07-18T10:06:20;27.40;88.60
20045;DHT22;10183;47.808;9.476;2022-07-18T10:08:47;27.60;91.90
20045;DHT22;10183;47.808;9.476;2022-07-18T10:11:14;27.70;79.40
20045;DHT22;10183;47.808;9.476;2022-07-18T10:13:41;27.90;87.70
20045;DHT22;10183;47.808;9.476;2022-07-18T10:16:07;28.00;77.70
20045;DHT22;10183;47.808;9.476;2022-07-18T10:18:35;28.20;82.70
20045;DHT22;10183;47.808;9.476;2022-07-18T10:23:48;28.30;80.60
20045;DHT22;10183;47.808;9.476;2022-07-18T10:26:19;28.40;78.10
20045;DHT22;10183;47.808;9.476;2022-07-18T10:34:14;27.70;64.10
20045;DHT22;10183;47.808;9.476;2022-07-18T10:39:25;28.20;64.70
20045;DHT22;10183;47.808;9.476;2022-07-18T10:57:37;29.80;72.00
20045;DHT22;10183;47.808;9.476;2022-07-18T11:00:07;29.80;66.50
20045;DHT22;10183;47.808;9.476;2022-07-18T11:02:37;29.80;66.80
20045;DHT22;10183;47.808;9.476;2022-07-18T11:13:42;30.40;62.20
20045;DHT22;10183;47.808;9.476;2022-07-18T11:23:46;28.50;58.10
20045;DHT22;10183;47.808;9.476;2022-07-18T11:26:20;28.10;73.40
20045;DHT22;10183;47.808;9.476;2022-07-18T11:28:48;28.60;73.50
20045;DHT22;10183;47.808;9.476;2022-07-18T11:31:15;29.30;65.80
20045;DHT22;10183;47.808;9.476;2022-07-18T11:33:47;29.90;67.10
20045;DHT22;10183;47.808;9.476;2022-07-18T11:36:22;29.90;59.00
20045;DHT22;10183;47.808;9.476;2022-07-18T11:38:56;28.80;63.90
20045;DHT22;10183;47.808;9.476;2022-07-18T11:41:22;28.40;64.00
20045;DHT22;10183;47.808;9.476;2022-07-18T11:43:51;28.50;71.20
20045;DHT22;10183;47.808;9.476;2022-07-18T11:46:19;28.60;61.50
20045;DHT22;10183;47.808;9.476;2022-07-18T11:48:47;29.50;67.60
20045;DHT22;10183;47.808;9.476;2022-07-18T11:51:16;30.40;62.50
20045;DHT22;10183;47.808;9.476;2022-07-18T11:56:10;28.10;52.80
20045;DHT22;10183;47.808;9.476;2022-07-18T11:58:38;28.30;57.40
20045;DHT22;10183;47.808;9.476;2022-07-18T12:01:04;29.30;61.20
20045;DHT22;10183;47.808;9.476;2022-07-18T12:03:37;30.10;57.50
20045;DHT22;10183;47.808;9.476;2022-07-18T12:06:14;30.90;58.60
20045;DHT22;10183;47.808;9.476;2022-07-18T12:08:45;30.90;52.00
20045;DHT22;10183;47.808;9.476;2022-07-18T12:16:39;31.60;46.90
20045;DHT22;10183;47.808;9.476;2022-07-18T12:19:13;30.40;51.30
20045;DHT22;10183;47.808;9.476;2022-07-18T12:21:55;29.00;49.20
20045;DHT22;10183;47.808;9.476;2022-07-18T12:27:24;28.60;53.50
20045;DHT22;10183;47.808;9.476;2022-07-18T12:32:55;29.40;59.00
20045;DHT22;10183;47.808;9.476;2022-07-18T12:35:27;30.80;57.50
20045;DHT22;10183;47.808;9.476;2022-07-18T12:38:08;31.70;62.20
20045;DHT22;10183;47.808;9.476;2022-07-18T12:40:46;32.40;59.20
20045;DHT22;10183;47.808;9.476;2022-07-18T12:43:35;32.90;53.30
20045;DHT22;10183;47.808;9.476;2022-07-18T12:46:06;33.30;51.60
20045;DHT22;10183;47.808;9.476;2022-07-18T12:48:33;33.60;55.70
20045;DHT22;10183;47.808;9.476;2022-07-18T12:51:06;34.20;49.40
20045;DHT22;10183;47.808;9.476;2022-07-18T12:53:34;34.60;50.70
20045;DHT22;10183;47.808;9.476;2022-07-18T12:56:01;33.20;43.40
20045;DHT22;10183;47.808;9.476;2022-07-18T12:58:27;31.70;50.40
20045;DHT22;10183;47.808;9.476;2022-07-18T13:00:53;32.20;51.50
20045;DHT22;10183;47.808;9.476;2022-07-18T13:03:22;33.00;56.00
20045;DHT22;10183;47.808;9.476;2022-07-18T13:05:49;32.00;49.00
20045;DHT22;10183;47.808;9.476;2022-07-18T13:08:15;30.30;54.20
20045;DHT22;10183;47.808;9.476;2022-07-18T13:10:44;31.60;61.10
20045;DHT22;10183;47.808;9.476;2022-07-18T13:13:10;32.80;57.90
20045;DHT22;10183;47.808;9.476;2022-07-18T13:15:37;33.70;53.30
20045;DHT22;10183;47.808;9.476;2022-07-18T13:18:04;33.80;46.20
20045;DHT22;10183;47.808;9.476;2022-07-18T13:20:31;34.50;52.90
20045;DHT22;10183;47.808;9.476;2022-07-18T13:22:57;35.10;51.20
20045;DHT22;10183;47.808;9.476;2022-07-18T13:25:27;35.80;48.60
20045;DHT22;10183;47.808;9.476;2022-07-18T13:27:57;36.20;50.00
20045;DHT22;10183;47.808;9.476;2022-07-18T13:30:23;36.70;51.40
20045;DHT22;10183;47.808;9.476;2022-07-18T13:32:49;36.70;48.00
20045;DHT22;10183;47.808;9.476;2022-07-18T13:35:16;36.80;45.00
20045;DHT22;10183;47.808;9.476;2022-07-18T13:37:42;37.60;42.20
20045;DHT22;10183;47.808;9.476;2022-07-18T13:40:09;38.30;43.00
20045;DHT22;10183;47.808;9.476;2022-07-18T13:42:37;39.30;39.60
20045;DHT22;10183;47.808;9.476;2022-07-18T13:45:04;40.00;38.60
20045;DHT22;10183;47.808;9.476;2022-07-18T13:47:30;39.90;39.70
20045;DHT22;10183;47.808;9.476;2022-07-18T13:50:00;41.10;36.90
20045;DHT22;10183;47.808;9.476;2022-07-18T13:52:26;42.40;35.40
20045;DHT22;10183;47.808;9.476;2022-07-18T13:54:55;42.70;35.00
20045;DHT22;10183;47.808;9.476;2022-07-18T13:57:23;43.40;32.40
20045;DHT22;10183;47.808;9.476;2022-07-18T13:59:50;43.40;32.50
20045;DHT22;10183;47.808;9.476;2022-07-18T14:02:18;43.90;32.20
20045;DHT22;10183;47.808;9.476;2022-07-18T14:04:44;43.90;30.90
20045;DHT22;10183;47.808;9.476;2022-07-18T14:07:10;44.30;28.70
20045;DHT22;10183;47.808;9.476;2022-07-18T14:09:38;44.50;29.20
20045;DHT22;10183;47.808;9.476;2022-07-18T14:12:04;44.50;29.10
20045;DHT22;10183;47.808;9.476;2022-07-18T14:14:31;45.10;30.10
20045;DHT22;10183;47.808;9.476;2022-07-18T14:16:57;45.20;29.10
20045;DHT22;10183;47.808;9.476;2022-07-18T14:19:23;45.20;28.70
20045;DHT22;10183;47.808;9.476;2022-07-18T14:21:49;45.70;30.30
20045;DHT22;10183;47.808;9.476;2022-07-18T14:24:15;46.20;29.10
20045;DHT22;10183;47.808;9.476;2022-07-18T14:26:41;45.90;28.20
20045;DHT22;10183;47.808;9.476;2022-07-18T14:29:08;45.80;26.50
20045;DHT22;10183;47.808;9.476;2022-07-18T14:31:34;38.30;27.60
20045;DHT22;10183;47.808;9.476;2022-07-18T14:34:00;34.80;31.90
20045;DHT22;10183;47.808;9.476;2022-07-18T14:36:26;35.70;36.00
20045;DHT22;10183;47.808;9.476;2022-07-18T14:38:52;39.40;37.10
20045;DHT22;10183;47.808;9.476;2022-07-18T14:41:19;40.20;31.30
20045;DHT22;10183;47.808;9.476;2022-07-18T14:43:45;41.60;33.00
20045;DHT22;10183;47.808;9.476;2022-07-18T14:46:11;43.90;30.40
20045;DHT22;10183;47.808;9.476;2022-07-18T14:48:37;45.50;28.60
20045;DHT22;10183;47.808;9.476;2022-07-18T14:51:03;46.30;27.50
20045;DHT22;10183;47.808;9.476;2022-07-18T14:53:32;47.40;28.30
20045;DHT22;10183;47.808;9.476;2022-07-18T14:55:58;48.70;25.80
20045;DHT22;10183;47.808;9.476;2022-07-18T14:58:25;49.50;26.80
20045;DHT22;10183;47.808;9.476;2022-07-18T15:00:51;49.10;25.10
20045;DHT22;10183;47.808;9.476;2022-07-18T15:03:17;48.70;25.60
20045;DHT22;10183;47.808;9.476;2022-07-18T15:05:44;48.50;24.70
20045;DHT22;10183;47.808;9.476;2022-07-18T15:08:11;47.50;25.70
20045;DHT22;10183;47.808;9.476;2022-07-18T15:10:39;48.10;25.00
20045;DHT22;10183;47.808;9.476;2022-07-18T15:13:05;48.40;24.60
20045;DHT22;10183;47.808;9.476;2022-07-18T15:15:32;48.80;24.00
20045;DHT22;10183;47.808;9.476;2022-07-18T15:17:59;49.60;25.20
20045;DHT22;10183;47.808;9.476;2022-07-18T15:20:26;49.50;23.40
20045;DHT22;10183;47.808;9.476;2022-07-18T15:22:52;50.00;22.50
20045;DHT22;10183;47.808;9.476;2022-07-18T15:25:19;50.00;23.20
20045;DHT22;10183;47.808;9.476;2022-07-18T15:27:45;46.00;24.60
20045;DHT22;10183;47.808;9.476;2022-07-18T15:30:12;46.90;24.20
20045;DHT22;10183;47.808;9.476;2022-07-18T15:32:38;47.20;26.10
20045;DHT22;10183;47.808;9.476;2022-07-18T15:35:06;48.10;25.20
20045;DHT22;10183;47.808;9.476;2022-07-18T15:37:32;49.00;24.20
20045;DHT22;10183;47.808;9.476;2022-07-18T15:39:59;49.40;23.90
20045;DHT22;10183;47.808;9.476;2022-07-18T15:42:25;49.30;24.40
20045;DHT22;10183;47.808;9.476;2022-07-18T15:44:52;49.50;23.70
20045;DHT22;10183;47.808;9.476;2022-07-18T15:47:18;49.70;24.40
20045;DHT22;10183;47.808;9.476;2022-07-18T15:49:44;49.40;24.80
20045;DHT22;10183;47.808;9.476;2022-07-18T15:52:11;48.80;24.90
20045;DHT22;10183;47.808;9.476;2022-07-18T15:54:38;48.70;23.80
20045;DHT22;10183;47.808;9.476;2022-07-18T15:57:05;48.60;23.10
20045;DHT22;10183;47.808;9.476;2022-07-18T15:59:32;47.90;22.90
20045;DHT22;10183;47.808;9.476;2022-07-18T16:01:59;46.60;27.40
20045;DHT22;10183;47.808;9.476;2022-07-18T16:04:25;47.10;24.50
20045;DHT22;10183;47.808;9.476;2022-07-18T16:06:52;47.00;26.00
20045;DHT22;10183;47.808;9.476;2022-07-18T16:09:19;47.30;24.90
20045;DHT22;10183;47.808;9.476;2022-07-18T16:11:47;47.00;24.60
20045;DHT22;10183;47.808;9.476;2022-07-18T16:14:13;46.60;24.60
20045;DHT22;10183;47.808;9.476;2022-07-18T16:16:40;46.60;24.20
20045;DHT22;10183;47.808;9.476;2022-07-18T16:19:08;46.40;24.00
20045;DHT22;10183;47.808;9.476;2022-07-18T16:21:36;46.40;24.80
20045;DHT22;10183;47.808;9.476;2022-07-18T16:24:02;45.50;23.50
20045;DHT22;10183;47.808;9.476;2022-07-18T16:26:29;44.70;24.50
20045;DHT22;10183;47.808;9.476;2022-07-18T16:28:57;44.60;25.50